sensor_id;sensor_type;location;lat;lon;timestamp;P1;durP1;ratioP1;P2;durP2;ratioP2
11568;SDS011;5840;46.894;15.542;2023-10-13T00:02:03;10.77;;;9.67;;
11568;SDS011;5840;46.894;15.542;2023-10-13T00:04:32;11.47;;;9.47;;
11568;SDS011;5840;46.894;15.542;2023-10-13T00:07:00;14.50;;;9.80;;
11568;SDS011;5840;46.894;15.542;2023-10-13T00:09:29;10.00;;;9.00;;
11568;SDS011;5840;46.894;15.542;2023-10-13T00:11:58;9.97;;;8.97;;
11568;SDS011;5840;46.894;15.542;2023-10-13T00:14:25;9.10;;;8.30;;
11568;SDS011;5840;46.894;15.542;2023-10-13T00:16:58;9.93;;;8.63;;
11568;SDS011;5840;46.894;15.542;2023-10-13T00:19:30;10.73;;;8.63;;
11568;SDS011;5840;46.894;15.542;2023-10-13T00:22:10;11.50;;;8.83;;
11568;SDS011;5840;46.894;15.542;2023-10-13T00:24:41;11.67;;;8.77;;
11568;SDS011;5840;46.894;15.542;2023-10-13T00:27:12;10.47;;;8.10;;
11568;SDS011;5840;46.894;15.542;2023-10-13T00:29:58;9.50;;;8.30;;
11568;SDS011;5840;46.894;15.542;2023-10-13T00:32:43;11.43;;;8.97;;
11568;SDS011;5840;46.894;15.542;2023-10-13T00:35:13;10.57;;;7.70;;
11568;SDS011;5840;46.894;15.542;2023-10-13T00:37:50;10.70;;;8.40;;
11568;SDS011;5840;46.894;15.542;2023-10-13T00:40:18;9.33;;;8.30;;
11568;SDS011;5840;46.894;15.542;2023-10-13T00:43:07;9.80;;;8.67;;
11568;SDS011;5840;46.894;15.542;2023-10-13T00:45:52;10.77;;;7.97;;
11568;SDS011;5840;46.894;15.542;2023-10-13T00:48:23;9.57;;;8.57;;
11568;SDS011;5840;46.894;15.542;2023-10-13T00:50:56;8.70;;;7.87;;
11568;SDS011;5840;46.894;15.542;2023-10-13T00:53:25;9.00;;;7.63;;
11568;SDS011;5840;46.894;15.542;2023-10-13T00:55:51;9.67;;;7.87;;
11568;SDS011;5840;46.894;15.542;2023-10-13T00:58:20;8.63;;;7.73;;
11568;SDS011;5840;46.894;15.542;2023-10-13T01:00:48;9.30;;;8.37;;
11568;SDS011;5840;46.894;15.542;2023-10-13T01:03:21;10.37;;;8.33;;
11568;SDS011;5840;46.894;15.542;2023-10-13T01:05:52;8.70;;;7.23;;
11568;SDS011;5840;46.894;15.542;2023-10-13T01:08:32;10.30;;;8.10;;
11568;SDS011;5840;46.894;15.542;2023-10-13T01:11:00;11.07;;;8.10;;
11568;SDS011;5840;46.894;15.542;2023-10-13T01:13:27;9.23;;;7.20;;
11568;SDS011;5840;46.894;15.542;2023-10-13T01:15:56;10.10;;;7.70;;
11568;SDS011;5840;46.894;15.542;2023-10-13T01:18:23;8.07;;;7.37;;
11568;SDS011;5840;46.894;15.542;2023-10-13T01:20:53;9.13;;;7.97;;
11568;SDS011;5840;46.894;15.542;2023-10-13T01:23:25;9.43;;;7.17;;
11568;SDS011;5840;46.894;15.542;2023-10-13T01:25:53;9.60;;;8.40;;
11568;SDS011;5840;46.894;15.542;2023-10-13T01:28:22;8.23;;;7.43;;
11568;SDS011;5840;46.894;15.542;2023-10-13T01:30:49;10.83;;;7.80;;
11568;SDS011;5840;46.894;15.542;2023-10-13T01:33:16;8.07;;;7.27;;
11568;SDS011;5840;46.894;15.542;2023-10-13T01:35:42;9.77;;;7.67;;
11568;SDS011;5840;46.894;15.542;2023-10-13T01:38:12;9.33;;;7.20;;
11568;SDS011;5840;46.894;15.542;2023-10-13T01:40:40;7.37;;;6.70;;
11568;SDS011;5840;46.894;15.542;2023-10-13T01:43:08;9.50;;;7.23;;
11568;SDS011;5840;46.894;15.542;2023-10-13T01:45:36;9.23;;;7.67;;
11568;SDS011;5840;46.894;15.542;2023-10-13T01:48:11;9.13;;;7.10;;
11568;SDS011;5840;46.894;15.542;2023-10-13T01:50:41;7.47;;;6.77;;
11568;SDS011;5840;46.894;15.542;2023-10-13T01:53:12;10.70;;;7.40;;
11568;SDS011;5840;46.894;15.542;2023-10-13T01:55:44;9.30;;;7.77;;
11568;SDS011;5840;46.894;15.542;2023-10-13T01:58:10;8.77;;;7.77;;
11568;SDS011;5840;46.894;15.542;2023-10-13T02:00:41;8.77;;;7.87;;
11568;SDS011;5840;46.894;15.542;2023-10-13T02:03:07;8.13;;;7.33;;
11568;SDS011;5840;46.894;15.542;2023-10-13T02:05:42;10.10;;;7.47;;
11568;SDS011;5840;46.894;15.542;2023-10-13T02:08:12;10.53;;;7.63;;
11568;SDS011;5840;46.894;15.542;2023-10-13T02:10:49;10.50;;;7.53;;
11568;SDS011;5840;46.894;15.542;2023-10-13T02:13:16;8.00;;;7.30;;
11568;SDS011;5840;46.894;15.542;2023-10-13T02:15:44;8.47;;;7.63;;
11568;SDS011;5840;46.894;15.542;2023-10-13T02:18:12;7.97;;;7.17;;
11568;SDS011;5840;46.894;15.542;2023-10-13T02:20:45;8.00;;;7.20;;
11568;SDS011;5840;46.894;15.542;2023-10-13T02:23:19;9.43;;;6.97;;
11568;SDS011;5840;46.894;15.542;2023-10-13T02:25:46;7.83;;;7.03;;
11568;SDS011;5840;46.894;15.542;2023-10-13T02:28:17;10.17;;;8.30;;
11568;SDS011;5840;46.894;15.542;2023-10-13T02:30:53;8.37;;;7.43;;
11568;SDS011;5840;46.894;15.542;2023-10-13T02:33:19;11.17;;;8.17;;
11568;SDS011;5840;46.894;15.542;2023-10-13T02:35:47;8.97;;;7.50;;
11568;SDS011;5840;46.894;15.542;2023-10-13T02:38:18;11.93;;;8.20;;
11568;SDS011;5840;46.894;15.542;2023-10-13T02:40:54;8.80;;;7.90;;
11568;SDS011;5840;46.894;15.542;2023-10-13T02:43:21;11.90;;;8.10;;
11568;SDS011;5840;46.894;15.542;2023-10-13T02:45:52;9.23;;;8.00;;
11568;SDS011;5840;46.894;15.542;2023-10-13T02:48:23;8.50;;;7.70;;
11568;SDS011;5840;46.894;15.542;2023-10-13T02:50:54;8.27;;;7.40;;
11568;SDS011;5840;46.894;15.542;2023-10-13T02:53:22;8.80;;;7.87;;
11568;SDS011;5840;46.894;15.542;2023-10-13T02:55:50;9.23;;;7.67;;
11568;SDS011;5840;46.894;15.542;2023-10-13T02:58:19;8.67;;;7.80;;
11568;SDS011;5840;46.894;15.542;2023-10-13T03:00:46;9.57;;;7.87;;
11568;SDS011;5840;46.894;15.542;2023-10-13T03:03:12;8.03;;;7.10;;
11568;SDS011;5840;46.894;15.542;2023-10-13T03:05:43;8.23;;;7.10;;
11568;SDS011;5840;46.894;15.542;2023-10-13T03:08:11;9.53;;;7.93;;
11568;SDS011;5840;46.894;15.542;2023-10-13T03:10:50;11.53;;;7.87;;
11568;SDS011;5840;46.894;15.542;2023-10-13T03:13:20;7.80;;;7.00;;
11568;SDS011;5840;46.894;15.542;2023-10-13T03:15:46;8.37;;;7.33;;
11568;SDS011;5840;46.894;15.542;2023-10-13T03:18:13;8.43;;;7.00;;
11568;SDS011;5840;46.894;15.542;2023-10-13T03:20:43;12.80;;;7.60;;
11568;SDS011;5840;46.894;15.542;2023-10-13T03:23:15;8.13;;;7.33;;
11568;SDS011;5840;46.894;15.542;2023-10-13T03:25:42;8.80;;;7.90;;
11568;SDS011;5840;46.894;15.542;2023-10-13T03:28:08;8.93;;;7.20;;
11568;SDS011;5840;46.894;15.542;2023-10-13T03:30:40;7.10;;;6.50;;
11568;SDS011;5840;46.894;15.542;2023-10-13T03:33:08;7.60;;;6.80;;
11568;SDS011;5840;46.894;15.542;2023-10-13T03:35:37;8.90;;;8.00;;
11568;SDS011;5840;46.894;15.542;2023-10-13T03:38:06;8.27;;;7.33;;
11568;SDS011;5840;46.894;15.542;2023-10-13T03:40:41;9.23;;;7.50;;
11568;SDS011;5840;46.894;15.542;2023-10-13T03:43:13;9.43;;;8.13;;
11568;SDS011;5840;46.894;15.542;2023-10-13T03:45:48;7.60;;;6.80;;
11568;SDS011;5840;46.894;15.542;2023-10-13T03:48:18;8.17;;;7.47;;
11568;SDS011;5840;46.894;15.542;2023-10-13T03:50:55;8.20;;;7.30;;
11568;SDS011;5840;46.894;15.542;2023-10-13T03:53:28;9.50;;;7.30;;
11568;SDS011;5840;46.894;15.542;2023-10-13T03:55:58;7.47;;;6.77;;
11568;SDS011;5840;46.894;15.542;2023-10-13T03:58:35;9.13;;;7.17;;
11568;SDS011;5840;46.894;15.542;2023-10-13T04:01:05;8.00;;;7.30;;
11568;SDS011;5840;46.894;15.542;2023-10-13T04:03:35;7.70;;;6.83;;
11568;SDS011;5840;46.894;15.542;2023-10-13T04:06:21;7.77;;;6.97;;
11568;SDS011;5840;46.894;15.542;2023-10-13T04:09:08;7.37;;;6.67;;
11568;SDS011;5840;46.894;15.542;2023-10-13T04:11:49;9.83;;;7.03;;
11568;SDS011;5840;46.894;15.542;2023-10-13T04:14:46;9.03;;;7.17;;
11568;SDS011;5840;46.894;15.542;2023-10-13T04:17:42;7.47;;;6.77;;
11568;SDS011;5840;46.894;15.542;2023-10-13T04:20:11;7.90;;;7.13;;
11568;SDS011;5840;46.894;15.542;2023-10-13T04:22:39;7.47;;;6.77;;
11568;SDS011;5840;46.894;15.542;2023-10-13T04:25:21;8.70;;;6.73;;
11568;SDS011;5840;46.894;15.542;2023-10-13T04:28:04;7.33;;;6.70;;
11568;SDS011;5840;46.894;15.542;2023-10-13T04:30:40;7.80;;;7.10;;
11568;SDS011;5840;46.894;15.542;2023-10-13T04:33:24;9.00;;;6.80;;
11568;SDS011;5840;46.894;15.542;2023-10-13T04:36:01;8.40;;;7.60;;
11568;SDS011;5840;46.894;15.542;2023-10-13T04:38:39;8.67;;;7.83;;
11568;SDS011;5840;46.894;15.542;2023-10-13T04:41:23;8.17;;;7.30;;
11568;SDS011;5840;46.894;15.542;2023-10-13T04:43:56;10.17;;;7.53;;
11568;SDS011;5840;46.894;15.542;2023-10-13T04:46:30;8.90;;;7.33;;
11568;SDS011;5840;46.894;15.542;2023-10-13T04:49:39;8.97;;;7.43;;
11568;SDS011;5840;46.894;15.542;2023-10-13T04:52:19;9.93;;;7.57;;
11568;SDS011;5840;46.894;15.542;2023-10-13T04:55:06;9.73;;;8.83;;
11568;SDS011;5840;46.894;15.542;2023-10-13T04:57:49;8.43;;;7.63;;
11568;SDS011;5840;46.894;15.542;2023-10-13T05:00:19;7.97;;;7.20;;
11568;SDS011;5840;46.894;15.542;2023-10-13T05:03:06;8.20;;;7.10;;
11568;SDS011;5840;46.894;15.542;2023-10-13T05:05:48;8.57;;;7.73;;
11568;SDS011;5840;46.894;15.542;2023-10-13T05:08:32;9.60;;;7.77;;
11568;SDS011;5840;46.894;15.542;2023-10-13T05:11:17;11.47;;;7.93;;
11568;SDS011;5840;46.894;15.542;2023-10-13T05:14:01;8.83;;;7.93;;
11568;SDS011;5840;46.894;15.542;2023-10-13T05:16:45;10.00;;;7.63;;
11568;SDS011;5840;46.894;15.542;2023-10-13T05:19:29;8.90;;;8.00;;
11568;SDS011;5840;46.894;15.542;2023-10-13T05:22:15;8.73;;;7.50;;
11568;SDS011;5840;46.894;15.542;2023-10-13T05:24:59;9.50;;;7.90;;
11568;SDS011;5840;46.894;15.542;2023-10-13T05:27:43;9.30;;;8.13;;
11568;SDS011;5840;46.894;15.542;2023-10-13T05:30:27;9.53;;;8.20;;
11568;SDS011;5840;46.894;15.542;2023-10-13T05:33:12;12.63;;;8.87;;
11568;SDS011;5840;46.894;15.542;2023-10-13T05:35:56;10.47;;;8.20;;
11568;SDS011;5840;46.894;15.542;2023-10-13T05:38:41;10.30;;;9.23;;
11568;SDS011;5840;46.894;15.542;2023-10-13T05:41:27;9.93;;;8.27;;
11568;SDS011;5840;46.894;15.542;2023-10-13T05:44:11;8.80;;;7.43;;
11568;SDS011;5840;46.894;15.542;2023-10-13T05:46:55;8.00;;;6.57;;
11568;SDS011;5840;46.894;15.542;2023-10-13T05:49:58;7.87;;;6.90;;
11568;SDS011;5840;46.894;15.542;2023-10-13T05:52:30;8.27;;;7.07;;
11568;SDS011;5840;46.894;15.542;2023-10-13T05:55:16;8.67;;;6.83;;
11568;SDS011;5840;46.894;15.542;2023-10-13T05:58:00;7.13;;;5.60;;
11568;SDS011;5840;46.894;15.542;2023-10-13T06:00:44;6.73;;;6.03;;
11568;SDS011;5840;46.894;15.542;2023-10-13T06:03:29;7.63;;;6.20;;
11568;SDS011;5840;46.894;15.542;2023-10-13T06:06:13;6.73;;;5.73;;
11568;SDS011;5840;46.894;15.542;2023-10-13T06:08:57;6.77;;;5.13;;
11568;SDS011;5840;46.894;15.542;2023-10-13T06:11:42;5.73;;;5.20;;
11568;SDS011;5840;46.894;15.542;2023-10-13T06:14:27;6.30;;;5.70;;
11568;SDS011;5840;46.894;15.542;2023-10-13T06:17:11;7.67;;;6.03;;
11568;SDS011;5840;46.894;15.542;2023-10-13T06:19:55;7.27;;;5.83;;
11568;SDS011;5840;46.894;15.542;2023-10-13T06:22:40;5.90;;;5.13;;
11568;SDS011;5840;46.894;15.542;2023-10-13T06:25:24;9.07;;;5.23;;
11568;SDS011;5840;46.894;15.542;2023-10-13T06:28:09;6.97;;;5.23;;
11568;SDS011;5840;46.894;15.542;2023-10-13T06:30:56;8.20;;;5.70;;
11568;SDS011;5840;46.894;15.542;2023-10-13T06:33:25;11.00;;;5.70;;
11568;SDS011;5840;46.894;15.542;2023-10-13T06:35:55;6.87;;;5.57;;
11568;SDS011;5840;46.894;15.542;2023-10-13T06:38:23;7.67;;;5.23;;
11568;SDS011;5840;46.894;15.542;2023-10-13T06:40:55;6.30;;;5.43;;
11568;SDS011;5840;46.894;15.542;2023-10-13T06:43:24;5.37;;;4.97;;
11568;SDS011;5840;46.894;15.542;2023-10-13T06:45:57;6.60;;;5.97;;
11568;SDS011;5840;46.894;15.542;2023-10-13T06:48:26;6.40;;;5.53;;
11568;SDS011;5840;46.894;15.542;2023-10-13T06:50:58;10.77;;;6.30;;
11568;SDS011;5840;46.894;15.542;2023-10-13T06:53:29;8.43;;;6.10;;
11568;SDS011;5840;46.894;15.542;2023-10-13T06:56:02;7.57;;;5.50;;
11568;SDS011;5840;46.894;15.542;2023-10-13T06:58:34;6.43;;;5.20;;
11568;SDS011;5840;46.894;15.542;2023-10-13T07:01:06;6.07;;;5.50;;
11568;SDS011;5840;46.894;15.542;2023-10-13T07:03:40;6.73;;;5.63;;
11568;SDS011;5840;46.894;15.542;2023-10-13T07:06:07;7.23;;;5.40;;
11568;SDS011;5840;46.894;15.542;2023-10-13T07:08:37;7.47;;;5.40;;
11568;SDS011;5840;46.894;15.542;2023-10-13T07:11:04;8.97;;;5.97;;
11568;SDS011;5840;46.894;15.542;2023-10-13T07:13:35;9.20;;;5.83;;
11568;SDS011;5840;46.894;15.542;2023-10-13T07:16:03;8.07;;;5.50;;
11568;SDS011;5840;46.894;15.542;2023-10-13T07:18:33;6.90;;;5.93;;
11568;SDS011;5840;46.894;15.542;2023-10-13T07:21:03;8.40;;;5.97;;
11568;SDS011;5840;46.894;15.542;2023-10-13T07:23:35;7.33;;;6.17;;
11568;SDS011;5840;46.894;15.542;2023-10-13T07:26:02;8.93;;;6.10;;
11568;SDS011;5840;46.894;15.542;2023-10-13T07:28:31;8.97;;;6.07;;
11568;SDS011;5840;46.894;15.542;2023-10-13T07:31:02;9.13;;;6.17;;
11568;SDS011;5840;46.894;15.542;2023-10-13T07:33:38;8.70;;;5.80;;
11568;SDS011;5840;46.894;15.542;2023-10-13T07:36:07;6.00;;;5.37;;
11568;SDS011;5840;46.894;15.542;2023-10-13T07:38:43;6.80;;;5.33;;
11568;SDS011;5840;46.894;15.542;2023-10-13T07:41:13;5.90;;;5.30;;
11568;SDS011;5840;46.894;15.542;2023-10-13T07:43:42;6.07;;;5.53;;
11568;SDS011;5840;46.894;15.542;2023-10-13T07:46:11;6.50;;;5.13;;
11568;SDS011;5840;46.894;15.542;2023-10-13T07:48:38;5.97;;;4.63;;
11568;SDS011;5840;46.894;15.542;2023-10-13T07:51:10;9.47;;;5.40;;
11568;SDS011;5840;46.894;15.542;2023-10-13T07:53:41;9.97;;;5.20;;
11568;SDS011;5840;46.894;15.542;2023-10-13T07:56:09;5.20;;;4.70;;
11568;SDS011;5840;46.894;15.542;2023-10-13T07:58:37;6.40;;;4.80;;
11568;SDS011;5840;46.894;15.542;2023-10-13T08:01:14;6.20;;;4.90;;
11568;SDS011;5840;46.894;15.542;2023-10-13T08:03:44;6.63;;;4.70;;
11568;SDS011;5840;46.894;15.542;2023-10-13T08:06:11;5.83;;;4.90;;
11568;SDS011;5840;46.894;15.542;2023-10-13T08:08:46;6.90;;;4.40;;
11568;SDS011;5840;46.894;15.542;2023-10-13T08:11:18;9.57;;;5.27;;
11568;SDS011;5840;46.894;15.542;2023-10-13T08:13:52;7.43;;;5.30;;
11568;SDS011;5840;46.894;15.542;2023-10-13T08:16:22;5.57;;;5.03;;
11568;SDS011;5840;46.894;15.542;2023-10-13T08:18:55;6.67;;;5.37;;
11568;SDS011;5840;46.894;15.542;2023-10-13T08:21:22;7.47;;;4.93;;
11568;SDS011;5840;46.894;15.542;2023-10-13T08:23:49;8.87;;;4.67;;
11568;SDS011;5840;46.894;15.542;2023-10-13T08:26:31;8.43;;;4.50;;
11568;SDS011;5840;46.894;15.542;2023-10-13T08:29:12;6.60;;;5.20;;
11568;SDS011;5840;46.894;15.542;2023-10-13T08:32:12;6.27;;;5.10;;
11568;SDS011;5840;46.894;15.542;2023-10-13T08:34:56;8.00;;;5.20;;
11568;SDS011;5840;46.894;15.542;2023-10-13T08:37:47;5.40;;;4.83;;
11568;SDS011;5840;46.894;15.542;2023-10-13T08:40:26;5.43;;;4.33;;
11568;SDS011;5840;46.894;15.542;2023-10-13T08:43:11;7.30;;;4.60;;
11568;SDS011;5840;46.894;15.542;2023-10-13T08:45:39;7.13;;;5.20;;
11568;SDS011;5840;46.894;15.542;2023-10-13T08:48:24;5.20;;;4.70;;
11568;SDS011;5840;46.894;15.542;2023-10-13T08:50:57;5.60;;;5.00;;
11568;SDS011;5840;46.894;15.542;2023-10-13T08:53:37;7.63;;;4.87;;
11568;SDS011;5840;46.894;15.542;2023-10-13T08:56:17;6.67;;;5.20;;
11568;SDS011;5840;46.894;15.542;2023-10-13T08:58:58;6.70;;;5.40;;
11568;SDS011;5840;46.894;15.542;2023-10-13T09:01:31;6.13;;;4.77;;
11568;SDS011;5840;46.894;15.542;2023-10-13T09:04:07;9.90;;;5.80;;
11568;SDS011;5840;46.894;15.542;2023-10-13T09:06:47;7.70;;;5.23;;
11568;SDS011;5840;46.894;15.542;2023-10-13T09:09:28;10.17;;;5.83;;
11568;SDS011;5840;46.894;15.542;2023-10-13T09:12:00;9.90;;;6.07;;
11568;SDS011;5840;46.894;15.542;2023-10-13T09:14:35;11.13;;;6.37;;
11568;SDS011;5840;46.894;15.542;2023-10-13T09:17:04;10.00;;;5.53;;
11568;SDS011;5840;46.894;15.542;2023-10-13T09:19:45;7.67;;;5.77;;
11568;SDS011;5840;46.894;15.542;2023-10-13T09:22:24;8.60;;;5.50;;
11568;SDS011;5840;46.894;15.542;2023-10-13T09:25:00;9.03;;;5.67;;
11568;SDS011;5840;46.894;15.542;2023-10-13T09:27:29;10.10;;;5.60;;
11568;SDS011;5840;46.894;15.542;2023-10-13T09:29:58;8.53;;;5.73;;
11568;SDS011;5840;46.894;15.542;2023-10-13T09:32:35;9.73;;;5.60;;
11568;SDS011;5840;46.894;15.542;2023-10-13T09:35:13;7.60;;;6.37;;
11568;SDS011;5840;46.894;15.542;2023-10-13T09:37:42;7.40;;;5.63;;
11568;SDS011;5840;46.894;15.542;2023-10-13T09:40:16;10.03;;;6.17;;
11568;SDS011;5840;46.894;15.542;2023-10-13T09:42:58;8.83;;;5.30;;
11568;SDS011;5840;46.894;15.542;2023-10-13T09:45:30;7.47;;;4.67;;
11568;SDS011;5840;46.894;15.542;2023-10-13T09:48:01;7.17;;;5.50;;
11568;SDS011;5840;46.894;15.542;2023-10-13T09:50:34;8.30;;;5.57;;
11568;SDS011;5840;46.894;15.542;2023-10-13T09:53:03;7.23;;;5.27;;
11568;SDS011;5840;46.894;15.542;2023-10-13T09:55:35;7.83;;;5.40;;
11568;SDS011;5840;46.894;15.542;2023-10-13T09:58:05;6.77;;;5.27;;
11568;SDS011;5840;46.894;15.542;2023-10-13T10:00:40;7.00;;;5.23;;
11568;SDS011;5840;46.894;15.542;2023-10-13T10:03:21;10.50;;;5.70;;
11568;SDS011;5840;46.894;15.542;2023-10-13T10:06:06;10.10;;;5.20;;
11568;SDS011;5840;46.894;15.542;2023-10-13T10:08:39;5.77;;;4.70;;
11568;SDS011;5840;46.894;15.542;2023-10-13T10:14:21;7.53;;;4.50;;
11568;SDS011;5840;46.894;15.542;2023-10-13T10:17:01;12.30;;;6.23;;
11568;SDS011;5840;46.894;15.542;2023-10-13T10:19:44;11.80;;;5.90;;
11568;SDS011;5840;46.894;15.542;2023-10-13T10:22:24;8.73;;;5.70;;
11568;SDS011;5840;46.894;15.542;2023-10-13T10:24:56;7.93;;;5.53;;
11568;SDS011;5840;46.894;15.542;2023-10-13T10:27:24;8.53;;;5.57;;
11568;SDS011;5840;46.894;15.542;2023-10-13T10:29:54;11.17;;;5.50;;
11568;SDS011;5840;46.894;15.542;2023-10-13T10:32:21;10.40;;;5.37;;
11568;SDS011;5840;46.894;15.542;2023-10-13T10:35:02;5.23;;;4.73;;
11568;SDS011;5840;46.894;15.542;2023-10-13T10:37:35;6.67;;;4.77;;
11568;SDS011;5840;46.894;15.542;2023-10-13T10:40:08;8.03;;;5.30;;
11568;SDS011;5840;46.894;15.542;2023-10-13T10:42:49;6.80;;;4.90;;
11568;SDS011;5840;46.894;15.542;2023-10-13T10:45:17;7.67;;;5.37;;
11568;SDS011;5840;46.894;15.542;2023-10-13T10:47:47;8.87;;;5.27;;
11568;SDS011;5840;46.894;15.542;2023-10-13T10:50:24;9.77;;;5.47;;
11568;SDS011;5840;46.894;15.542;2023-10-13T10:53:01;6.63;;;5.07;;
11568;SDS011;5840;46.894;15.542;2023-10-13T10:55:34;7.10;;;5.50;;
11568;SDS011;5840;46.894;15.542;2023-10-13T10:58:01;10.50;;;5.30;;
11568;SDS011;5840;46.894;15.542;2023-10-13T11:00:31;9.37;;;5.20;;
11568;SDS011;5840;46.894;15.542;2023-10-13T11:03:10;8.97;;;5.17;;
11568;SDS011;5840;46.894;15.542;2023-10-13T11:05:44;9.17;;;5.23;;
11568;SDS011;5840;46.894;15.542;2023-10-13T11:08:22;10.77;;;5.67;;
11568;SDS011;5840;46.894;15.542;2023-10-13T11:10:56;6.50;;;5.00;;
11568;SDS011;5840;46.894;15.542;2023-10-13T11:13:25;8.60;;;4.77;;
11568;SDS011;5840;46.894;15.542;2023-10-13T11:15:57;9.03;;;5.23;;
11568;SDS011;5840;46.894;15.542;2023-10-13T11:18:29;7.67;;;5.27;;
11568;SDS011;5840;46.894;15.542;2023-10-13T11:21:02;8.57;;;5.30;;
11568;SDS011;5840;46.894;15.542;2023-10-13T11:23:33;7.63;;;5.07;;
11568;SDS011;5840;46.894;15.542;2023-10-13T11:26:01;7.67;;;5.03;;
11568;SDS011;5840;46.894;15.542;2023-10-13T11:28:30;9.73;;;5.00;;
11568;SDS011;5840;46.894;15.542;2023-10-13T11:30:59;6.40;;;4.77;;
11568;SDS011;5840;46.894;15.542;2023-10-13T11:33:35;7.37;;;4.57;;
11568;SDS011;5840;46.894;15.542;2023-10-13T11:36:11;7.63;;;5.33;;
11568;SDS011;5840;46.894;15.542;2023-10-13T11:38:44;9.13;;;4.73;;
11568;SDS011;5840;46.894;15.542;2023-10-13T11:41:15;6.40;;;4.77;;
11568;SDS011;5840;46.894;15.542;2023-10-13T11:43:44;7.40;;;5.13;;
11568;SDS011;5840;46.894;15.542;2023-10-13T11:46:29;7.27;;;4.50;;
11568;SDS011;5840;46.894;15.542;2023-10-13T11:49:28;7.27;;;4.93;;
11568;SDS011;5840;46.894;15.542;2023-10-13T11:52:03;6.80;;;4.90;;
11568;SDS011;5840;46.894;15.542;2023-10-13T11:55:02;9.10;;;4.97;;
11568;SDS011;5840;46.894;15.542;2023-10-13T11:57:29;6.93;;;5.13;;
11568;SDS011;5840;46.894;15.542;2023-10-13T11:59:56;6.83;;;4.77;;
11568;SDS011;5840;46.894;15.542;2023-10-13T12:02:41;7.97;;;5.10;;
11568;SDS011;5840;46.894;15.542;2023-10-13T12:05:27;7.17;;;4.30;;
11568;SDS011;5840;46.894;15.542;2023-10-13T12:08:15;7.80;;;4.40;;
11568;SDS011;5840;46.894;15.542;2023-10-13T12:10:48;6.57;;;4.67;;
11568;SDS011;5840;46.894;15.542;2023-10-13T12:13:25;10.83;;;5.00;;
11568;SDS011;5840;46.894;15.542;2023-10-13T12:15:52;9.13;;;5.17;;
11568;SDS011;5840;46.894;15.542;2023-10-13T12:18:21;8.03;;;5.67;;
11568;SDS011;5840;46.894;15.542;2023-10-13T12:20:50;11.30;;;5.13;;
11568;SDS011;5840;46.894;15.542;2023-10-13T12:23:17;8.27;;;5.47;;
11568;SDS011;5840;46.894;15.542;2023-10-13T12:25:45;11.00;;;5.83;;
11568;SDS011;5840;46.894;15.542;2023-10-13T12:28:25;7.63;;;5.00;;
11568;SDS011;5840;46.894;15.542;2023-10-13T12:30:54;7.47;;;4.73;;
11568;SDS011;5840;46.894;15.542;2023-10-13T12:33:22;8.97;;;5.30;;
11568;SDS011;5840;46.894;15.542;2023-10-13T12:36:02;9.83;;;5.37;;
11568;SDS011;5840;46.894;15.542;2023-10-13T12:38:40;7.73;;;5.60;;
11568;SDS011;5840;46.894;15.542;2023-10-13T12:41:24;11.60;;;5.77;;
11568;SDS011;5840;46.894;15.542;2023-10-13T12:44:08;6.60;;;5.00;;
11568;SDS011;5840;46.894;15.542;2023-10-13T12:46:53;8.67;;;5.27;;
11568;SDS011;5840;46.894;15.542;2023-10-13T12:49:37;12.37;;;6.20;;
11568;SDS011;5840;46.894;15.542;2023-10-13T12:52:24;8.10;;;5.17;;
11568;SDS011;5840;46.894;15.542;2023-10-13T12:54:51;8.83;;;5.00;;
11568;SDS011;5840;46.894;15.542;2023-10-13T12:57:33;6.43;;;4.77;;
11568;SDS011;5840;46.894;15.542;2023-10-13T13:00:08;6.67;;;4.70;;
11568;SDS011;5840;46.894;15.542;2023-10-13T13:02:46;6.43;;;5.00;;
11568;SDS011;5840;46.894;15.542;2023-10-13T13:05:15;7.07;;;4.97;;
11568;SDS011;5840;46.894;15.542;2023-10-13T13:07:48;9.70;;;5.23;;
11568;SDS011;5840;46.894;15.542;2023-10-13T13:10:19;7.77;;;5.30;;
11568;SDS011;5840;46.894;15.542;2023-10-13T13:13:00;9.80;;;5.03;;
11568;SDS011;5840;46.894;15.542;2023-10-13T13:15:28;7.37;;;5.53;;
11568;SDS011;5840;46.894;15.542;2023-10-13T13:17:55;6.33;;;5.07;;
11568;SDS011;5840;46.894;15.542;2023-10-13T13:20:23;7.37;;;5.13;;
11568;SDS011;5840;46.894;15.542;2023-10-13T13:22:55;9.03;;;5.63;;
11568;SDS011;5840;46.894;15.542;2023-10-13T13:25:27;7.53;;;5.50;;
11568;SDS011;5840;46.894;15.542;2023-10-13T13:27:57;9.43;;;5.70;;
11568;SDS011;5840;46.894;15.542;2023-10-13T13:30:30;10.77;;;5.90;;
11568;SDS011;5840;46.894;15.542;2023-10-13T13:32:59;8.73;;;6.03;;
11568;SDS011;5840;46.894;15.542;2023-10-13T13:35:29;8.53;;;6.10;;
11568;SDS011;5840;46.894;15.542;2023-10-13T13:38:01;11.73;;;7.03;;
11568;SDS011;5840;46.894;15.542;2023-10-13T13:40:36;11.43;;;6.77;;
11568;SDS011;5840;46.894;15.542;2023-10-13T13:43:03;9.00;;;6.00;;
11568;SDS011;5840;46.894;15.542;2023-10-13T13:45:31;10.03;;;6.90;;
11568;SDS011;5840;46.894;15.542;2023-10-13T13:48:00;10.60;;;6.90;;
11568;SDS011;5840;46.894;15.542;2023-10-13T13:50:32;9.40;;;6.70;;
11568;SDS011;5840;46.894;15.542;2023-10-13T13:53:07;11.40;;;6.23;;
11568;SDS011;5840;46.894;15.542;2023-10-13T13:55:36;13.77;;;5.90;;
11568;SDS011;5840;46.894;15.542;2023-10-13T13:58:05;7.60;;;5.50;;
11568;SDS011;5840;46.894;15.542;2023-10-13T14:00:34;8.40;;;5.47;;
11568;SDS011;5840;46.894;15.542;2023-10-13T14:03:03;8.70;;;5.47;;
11568;SDS011;5840;46.894;15.542;2023-10-13T14:05:31;6.03;;;5.17;;
11568;SDS011;5840;46.894;15.542;2023-10-13T14:07:58;9.23;;;5.13;;
11568;SDS011;5840;46.894;15.542;2023-10-13T14:10:26;9.20;;;4.97;;
11568;SDS011;5840;46.894;15.542;2023-10-13T14:13:19;8.33;;;5.60;;
11568;SDS011;5840;46.894;15.542;2023-10-13T14:16:05;6.73;;;5.23;;
11568;SDS011;5840;46.894;15.542;2023-10-13T14:18:41;7.07;;;5.47;;
11568;SDS011;5840;46.894;15.542;2023-10-13T14:21:08;8.87;;;5.77;;
11568;SDS011;5840;46.894;15.542;2023-10-13T14:23:35;6.63;;;5.30;;
11568;SDS011;5840;46.894;15.542;2023-10-13T14:26:05;6.93;;;5.40;;
11568;SDS011;5840;46.894;15.542;2023-10-13T14:28:34;7.57;;;5.07;;
11568;SDS011;5840;46.894;15.542;2023-10-13T14:31:04;6.87;;;5.80;;
11568;SDS011;5840;46.894;15.542;2023-10-13T14:33:35;7.60;;;5.90;;
11568;SDS011;5840;46.894;15.542;2023-10-13T14:36:02;10.23;;;6.40;;
11568;SDS011;5840;46.894;15.542;2023-10-13T14:38:29;11.80;;;6.30;;
11568;SDS011;5840;46.894;15.542;2023-10-13T14:40:56;10.23;;;6.63;;
11568;SDS011;5840;46.894;15.542;2023-10-13T14:43:25;8.60;;;6.80;;
11568;SDS011;5840;46.894;15.542;2023-10-13T14:45:52;9.50;;;6.60;;
11568;SDS011;5840;46.894;15.542;2023-10-13T14:48:19;10.37;;;6.40;;
11568;SDS011;5840;46.894;15.542;2023-10-13T14:50:49;11.27;;;6.90;;
11568;SDS011;5840;46.894;15.542;2023-10-13T14:53:16;9.13;;;7.00;;
11568;SDS011;5840;46.894;15.542;2023-10-13T14:55:44;9.43;;;7.00;;
11568;SDS011;5840;46.894;15.542;2023-10-13T14:58:11;7.30;;;6.43;;
11568;SDS011;5840;46.894;15.542;2023-10-13T15:00:42;9.83;;;6.90;;
11568;SDS011;5840;46.894;15.542;2023-10-13T15:03:10;11.17;;;7.47;;
11568;SDS011;5840;46.894;15.542;2023-10-13T15:05:37;8.53;;;7.57;;
11568;SDS011;5840;46.894;15.542;2023-10-13T15:08:08;10.40;;;8.07;;
11568;SDS011;5840;46.894;15.542;2023-10-13T15:10:35;10.13;;;7.70;;
11568;SDS011;5840;46.894;15.542;2023-10-13T15:13:02;12.90;;;8.00;;
11568;SDS011;5840;46.894;15.542;2023-10-13T15:15:30;10.83;;;8.77;;
11568;SDS011;5840;46.894;15.542;2023-10-13T15:17:58;14.40;;;8.50;;
11568;SDS011;5840;46.894;15.542;2023-10-13T15:20:26;11.80;;;8.90;;
11568;SDS011;5840;46.894;15.542;2023-10-13T15:22:53;9.70;;;8.70;;
11568;SDS011;5840;46.894;15.542;2023-10-13T15:25:25;11.53;;;9.23;;
11568;SDS011;5840;46.894;15.542;2023-10-13T15:27:59;12.57;;;9.00;;
11568;SDS011;5840;46.894;15.542;2023-10-13T15:30:28;11.50;;;8.93;;